Time;durP1;ratioP1;P1;durP2;ratioP2;P2;SDS_P1;SDS_P2;PMS_P1;PMS_P2;Temp;Humidity;BMP_temperature;BMP_pressure;BME280_temperature;BME280_humidity;BME280_pressure;Samples;Min_cycle;Max_cycle;Signal;HPM_P1;HPM_P2
2022/08/13 00:00:13;;;;;;;6.00;5.45;;;;;;;;;;5031555;28;20225;-66
2022/08/13 00:02:42;;;;;;;6.00;5.60;;;;;;;;;;5031833;28;20199;-66
2022/08/13 00:05:09;;;;;;;5.68;5.28;;;;;;;;;;5031476;28;20310;-66
2022/08/13 00:07:36;;;;;;;5.90;5.50;;;;;;;;;;5031303;28;20204;-66
2022/08/13 00:10:04;;;;;;;6.63;5.18;;;;;;;;;;5031144;28;20203;-65
2022/08/13 00:15:19;;;;;;;6.45;5.95;;;;;;;;;;5031241;28;20206;-66
2022/08/13 00:17:49;;;;;;;6.30;5.90;;;;;;;;;;5031587;28;20199;-65
2022/08/13 00:20:16;;;;;;;6.72;6.22;;;;;;;;;;5031049;28;20576;-65
2022/08/13 00:22:42;;;;;;;6.25;5.57;;;;;;;;;;5031373;28;20207;-66
2022/08/13 00:25:09;;;;;;;6.28;5.70;;;;;;;;;;5031403;28;20262;-65
2022/08/13 00:27:37;;;;;;;5.65;5.20;;;;;;;;;;5031103;28;20200;-65
2022/08/13 00:30:05;;;;;;;6.30;5.82;;;;;;;;;;5031260;28;20204;-66
2022/08/13 00:32:32;;;;;;;7.05;5.70;;;;;;;;;;5030865;28;20227;-66
2022/08/13 00:34:59;;;;;;;6.18;5.88;;;;;;;;;;5031310;28;20250;-66
2022/08/13 00:37:26;;;;;;;6.38;5.97;;;;;;;;;;5031376;28;20262;-66
2022/08/13 00:39:53;;;;;;;6.45;5.97;;;;;;;21.76;nan;94838.75;5030837;28;20210;-66
2022/08/13 00:42:21;;;;;;;6.63;6.13;;;;;;;;;;5031165;28;20199;-66
2022/08/13 00:44:49;;;;;;;5.55;5.15;;;;;;;;;;5030895;28;20206;-67
2022/08/13 00:50:00;;;;;;;5.57;5.28;;;;;;;;;;5030226;28;20206;-65
2022/08/13 00:52:30;;;;;;;5.40;4.93;;;;;;;;;;5030965;28;20226;-66
2022/08/13 00:54:59;;;;;;;5.32;4.60;;;;;;;;;;5030490;28;20295;-66
2022/08/13 00:57:25;;;;;;;5.13;4.63;;;;;;;;;;5030898;28;20204;-66
2022/08/13 00:59:53;;;;;;;8.30;5.82;;;;;;;;;;5030319;28;20583;-65
2022/08/13 01:02:21;;;;;;;6.10;5.45;;;;;;;;;;5030354;28;20199;-66
2022/08/13 01:04:47;;;;;;;5.75;5.45;;;;;;;;;;5030551;28;20195;-66
2022/08/13 01:07:15;;;;;;;6.28;5.63;;;;;;;;;;5030455;28;20669;-66
2022/08/13 01:09:41;;;;;;;6.22;4.75;;;;;;;;;;5030358;28;20598;-65
2022/08/13 01:12:09;;;;;;;4.78;4.47;;;;;;;;;;5030281;28;20231;-66
2022/08/13 01:14:38;;;;;;;9.85;5.32;;;;;;;;;;5030651;28;20666;-66
2022/08/13 01:17:07;;;;;;;5.65;5.35;;;;;;;;;;5030871;28;20251;-66
2022/08/13 01:19:35;;;;;;;6.45;5.40;;;;;;;21.70;nan;94829.72;5030478;28;20204;-66
2022/08/13 01:22:03;;;;;;;6.32;5.20;;;;;;;;;;5030894;28;20200;-67
2022/08/13 01:24:30;;;;;;;5.57;5.00;;;;;;;;;;5030276;28;20701;-67
2022/08/13 01:26:57;;;;;;;5.63;5.28;;;;;;;;;;5030783;28;20196;-66
2022/08/13 01:29:24;;;;;;;9.75;5.60;;;;;;;;;;5030146;28;20681;-67
2022/08/13 01:31:52;;;;;;;5.95;5.45;;;;;;;21.19;nan;94832.06;5030386;28;20210;-65
2022/08/13 01:34:20;;;;;;;6.10;5.50;;;;;;;21.43;nan;94834.50;5030144;28;20678;-65
2022/08/13 01:36:49;;;;;;;5.07;4.78;;;;;;;;;;5030603;28;20227;-66
2022/08/13 01:39:16;;;;;;;7.10;5.47;;;;;;;;;;5030256;28;20211;-65
2022/08/13 01:41:43;;;;;;;6.43;5.55;;;;;;;;;;5030156;28;20203;-66
2022/08/13 01:44:10;;;;;;;6.05;4.70;;;;;;;;;;5030492;28;20200;-66
2022/08/13 01:52:03;;;;;;;5.40;5.10;;;;;;;;;;5030163;28;20253;-66
2022/08/13 01:54:31;;;;;;;5.35;5.05;;;;;;;;;;5030447;28;20253;-67
2022/08/13 01:56:59;;;;;;;5.60;5.18;;;;;;;;;;5030480;28;20199;-66
2022/08/13 01:59:26;;;;;;;5.80;5.25;;;;;;;21.61;nan;94770.97;5030102;28;20210;-66
2022/08/13 02:01:53;;;;;;;9.50;6.43;;;;;;;;;;5030216;28;20677;-66
2022/08/13 02:04:21;;;;;;;10.02;6.05;;;;;;;;;;5033780;28;20195;-66
2022/08/13 02:06:48;;;;;;;6.55;6.15;;;;;;;;;;5033896;28;20228;-66
2022/08/13 02:09:14;;;;;;;5.80;5.40;;;;;;;;;;5033314;28;20669;-66
2022/08/13 02:11:42;;;;;;;10.88;5.60;;;;;;;;;;5033469;28;20235;-67
2022/08/13 02:14:09;;;;;;;5.43;4.95;;;;;;;;;;5033431;28;20651;-66
2022/08/13 02:16:36;;;;;;;6.75;5.47;;;;;;;;;;5033692;28;20646;-67
2022/08/13 02:19:03;;;;;;;6.45;4.95;;;;;;;;;;5033698;28;20274;-65
2022/08/13 02:21:33;;;;;;;5.25;4.95;;;;;;;21.91;nan;94821.13;5033378;28;20257;-67
2022/08/13 02:24:03;;;;;;;6.93;5.47;;;;;;;21.84;nan;94789.78;5033695;28;20196;-67
2022/08/13 02:26:30;;;;;;;5.28;4.97;;;;;;;;;;5033362;28;20192;-65
2022/08/13 02:28:59;;;;;;;5.07;4.63;;;;;;;;;;5033353;28;20265;-65
2022/08/13 02:31:26;;;;;;;5.65;5.18;;;;;;;;;;5033725;28;20203;-65
2022/08/13 02:33:53;;;;;;;5.63;5.13;;;;;;;;;;5032875;28;20238;-64
2022/08/13 02:36:21;;;;;;;5.00;4.70;;;;;;;;;;5033246;28;20200;-65
2022/08/13 02:38:54;;;;;;;6.30;5.90;;;;;;;;;;5033155;28;20196;-66
2022/08/13 02:44:06;;;;;;;8.35;5.05;;;;;;;;;;5032915;28;20688;-66
2022/08/13 02:46:34;;;;;;;5.05;4.55;;;;;;;22.61;nan;94768.66;5033061;28;20258;-66
2022/08/13 02:49:02;;;;;;;5.20;4.82;;;;;;;;;;5032775;28;20739;-66
2022/08/13 02:51:29;;;;;;;5.60;4.78;;;;;;;;;;5032963;28;20203;-66
2022/08/13 02:53:55;;;;;;;5.13;4.82;;;;;;;;;;5033011;28;20223;-66
2022/08/13 02:56:22;;;;;;;5.60;5.20;;;;;;;;;;5033030;28;20204;-67
2022/08/13 02:58:49;;;;;;;5.68;5.38;;;;;;;;;;5032850;28;20281;-66
2022/08/13 03:01:17;;;;;;;5.05;4.75;;;;;;;;;;5032424;28;20720;-66
2022/08/13 03:03:43;;;;;;;5.05;4.75;;;;;;;;;;5032874;28;20602;-66
2022/08/13 03:06:09;;;;;;;5.88;5.25;;;;;;;;;;5032978;28;20277;-67
2022/08/13 03:08:36;;;;;;;5.85;5.32;;;;;;;;;;5032462;28;20204;-66
2022/08/13 03:11:04;;;;;;;6.35;4.60;;;;;;;;;;5032412;28;20601;-67
2022/08/13 03:13:32;;;;;;;5.38;5.05;;;;;;;;;;5032253;28;20227;-66
2022/08/13 03:16:01;;;;;;;6.85;5.18;;;;;;;;;;5032579;28;20262;-67
2022/08/13 03:18:29;;;;;;;5.53;4.90;;;;;;;;;;5032192;28;20658;-67
2022/08/13 03:20:57;;;;;;;5.18;4.88;;;;;;;;;;5032484;28;20238;-66
2022/08/13 03:23:24;;;;;;;6.07;5.63;;;;;;;;;;5032344;28;20192;-66
2022/08/13 03:25:50;;;;;;;5.47;5.18;;;;;;;;;;5032267;28;20203;-66
2022/08/13 03:28:17;;;;;;;5.07;4.78;;;;;;;;;;5032380;28;20610;-67
2022/08/13 03:30:44;;;;;;;5.78;5.43;;;;;;;;;;5031876;28;20203;-67
2022/08/13 03:33:13;;;;;;;5.75;5.28;;;;;;;;;;5031974;28;20312;-66
2022/08/13 03:35:41;;;;;;;5.05;4.75;;;;;;;;;;5032160;28;20273;-67
2022/08/13 03:38:08;;;;;;;6.13;5.70;;;;;;;;;;5032233;28;20214;-66
2022/08/13 03:43:21;;;;;;;5.97;5.47;;;;;;;;;;5026674;28;20697;-67
2022/08/13 03:45:48;;;;;;;5.35;4.95;;;;;;;;;;5032118;28;20269;-66
2022/08/13 03:48:15;;;;;;;5.78;5.35;;;;;;;;;;5031658;28;20641;-65
2022/08/13 03:50:44;;;;;;;6.07;5.03;;;;;;;;;;5031677;28;20643;-65
2022/08/13 03:53:10;;;;;;;8.15;6.40;;;;;;;;;;5031547;28;20657;-66
2022/08/13 03:55:39;;;;;;;6.28;5.78;;;;;;;;;;5031620;28;20554;-66
2022/08/13 03:58:06;;;;;;;12.40;5.50;;;;;;;;;;5031447;28;20677;-66
2022/08/13 04:00:34;;;;;;;5.35;5.05;;;;;;;;;;5031790;28;20584;-65
2022/08/13 04:03:02;;;;;;;6.50;5.90;;;;;;;;;;5031752;28;20199;-65
2022/08/13 04:05:30;;;;;;;6.40;5.78;;;;;;;;;;5031307;28;20252;-65
2022/08/13 04:07:59;;;;;;;6.70;6.20;;;;;;;;;;5031752;28;20196;-66
2022/08/13 04:10:26;;;;;;;6.80;6.22;;;;;;;;;;5031300;28;20269;-66
2022/08/13 04:12:52;;;;;;;7.05;6.38;;;;;;;;;;5031889;28;20204;-65
2022/08/13 04:15:19;;;;;;;7.05;6.35;;;;;;;;;;5031201;28;20199;-66
2022/08/13 04:17:45;;;;;;;6.78;6.38;;;;;;;;;;5031776;28;20565;-66
2022/08/13 04:20:12;;;;;;;7.32;6.57;;;;;;;;;;5031413;28;20208;-65
2022/08/13 04:22:39;;;;;;;6.93;6.43;;;;;;;;;;5031100;28;20195;-65
2022/08/13 04:25:07;;;;;;;7.00;6.40;;;;;;;;;;5030435;28;20249;-65
2022/08/13 04:27:34;;;;;;;7.10;6.70;;;;;;;;;;5031401;28;20208;-66
2022/08/13 04:30:01;;;;;;;6.95;6.38;;;;;;;;;;5031248;28;20207;-67
2022/08/13 04:32:29;;;;;;;9.98;6.57;;;;;;;;;;5031422;28;20229;-65
2022/08/13 04:34:55;;;;;;;7.05;5.68;;;;;;;;;;5030695;28;20281;-66
2022/08/13 04:37:22;;;;;;;7.78;5.93;;;;;;;;;;5031299;28;20303;-67
2022/08/13 04:39:53;;;;;;;7.60;6.90;;;;;;;;;;5030906;28;20210;-66
2022/08/13 04:42:22;;;;;;;6.50;6.00;;;;;;;;;;5031415;28;20210;-66
2022/08/13 04:44:49;;;;;;;6.60;6.00;;;;;;;;;;5030808;28;20577;-67
2022/08/13 04:47:17;;;;;;;7.10;6.50;;;;;;;;;;5031152;28;20203;-66
2022/08/13 04:49:48;;;;;;;8.32;6.78;;;;;;;;;;5030992;28;20200;-66
2022/08/13 04:52:14;;;;;;;7.28;6.47;;;;;;;;;;5031067;28;20199;-66
2022/08/13 04:54:42;;;;;;;7.03;6.50;;;;;;;;;;5031038;28;20223;-66
2022/08/13 04:57:09;;;;;;;8.07;7.03;;;;;;;;;;5030661;28;20239;-66
2022/08/13 04:59:38;;;;;;;10.32;7.80;;;;;;;;;;5030746;28;20203;-66
2022/08/13 05:02:05;;;;;;;7.95;7.25;;;;;;;;;;5030699;28;20601;-66
2022/08/13 05:04:32;;;;;;;7.20;6.50;;;;;;;;;;5030433;28;20202;-66
2022/08/13 05:06:58;;;;;;;7.85;7.32;;;;;;;;;;5030915;28;20223;-67
2022/08/13 05:09:25;;;;;;;8.57;7.65;;;;;;;;;;5030621;28;20199;-66
2022/08/13 05:11:53;;;;;;;6.68;6.18;;;;;;;;;;5030573;28;20314;-66
2022/08/13 05:14:19;;;;;;;6.60;6.20;;;;;;;;;;5030730;28;20326;-66
2022/08/13 05:16:47;;;;;;;7.40;6.90;;;;;;;;;;5030498;28;20204;-67
2022/08/13 05:19:14;;;;;;;11.57;7.55;;;;;;;;;;5030647;28;20266;-66
2022/08/13 05:21:41;;;;;;;9.20;7.40;;;;;;;;;;5030414;28;20673;-66
2022/08/13 05:24:08;;;;;;;7.60;7.00;;;;;;;;;;5030793;28;20214;-65
2022/08/13 05:26:34;;;;;;;12.65;6.68;;;;;;;;;;5030513;28;20207;-66
2022/08/13 05:29:04;;;;;;;6.97;6.30;;;;;;;;;;5030231;28;20196;-65
2022/08/13 05:31:30;;;;;;;9.77;6.47;;;;;;;;;;5030632;28;20643;-65
2022/08/13 05:33:58;;;;;;;6.93;6.32;;;;;;;;;;5030307;28;20227;-65
2022/08/13 05:36:28;;;;;;;7.55;6.68;;;;;;;;;;5031865;28;20234;-67
2022/08/13 05:38:55;;;;;;;7.78;7.05;;;;;;;;;;5034359;28;20195;-66
2022/08/13 05:41:23;;;;;;;7.78;7.05;;;;;;;;;;5034571;28;20227;-66
2022/08/13 05:43:51;;;;;;;8.70;7.57;;;;;;;;;;5034171;28;20195;-66
2022/08/13 05:46:18;;;;;;;7.05;6.55;;;;;;;;;;5034168;28;20258;-65
2022/08/13 05:48:56;;;;;;;10.65;6.47;;;;;;;;;;5034088;28;20211;-67
2022/08/13 05:51:25;;;;;;;7.68;6.97;;;;;;;;;;5034491;28;20196;-66
2022/08/13 05:53:54;;;;;;;8.70;6.65;;;;;;;;;;5033928;28;20223;-65
2022/08/13 05:56:21;;;;;;;10.60;7.22;;;;;;;;;;5033761;28;20687;-66
2022/08/13 05:58:48;;;;;;;10.70;6.82;;;;;;;;;;5033795;28;20638;-66
2022/08/13 06:04:00;;;;;;;7.47;6.75;;;;;;;;;;5033897;28;20322;-67
2022/08/13 06:06:29;;;;;;;6.70;6.20;;;;;;;;;;5033589;28;20661;-67
2022/08/13 06:08:58;;;;;;;6.65;6.13;;;;;;;;;;5033584;28;20785;-66
2022/08/13 06:11:25;;;;;;;8.32;6.07;;;;;;;;;;5033200;28;20232;-66
2022/08/13 06:13:52;;;;;;;6.22;5.70;;;;;;;;;;5033824;28;20232;-66
2022/08/13 06:16:20;;;;;;;6.85;6.22;;;;;;;22.69;nan;94808.50;5033620;28;20196;-65
2022/08/13 06:18:48;;;;;;;7.55;6.95;;;;;;;;;;5033424;28;20254;-66
2022/08/13 06:21:15;;;;;;;6.88;6.38;;;;;;;;;;5033910;28;20231;-65
2022/08/13 06:23:45;;;;;;;6.85;6.45;;;;;;;;;;5033563;28;20208;-68
2022/08/13 06:26:12;;;;;;;7.53;6.28;;;;;;;;;;5033721;28;20281;-66
2022/08/13 06:28:40;;;;;;;7.32;6.43;;;;;;;;;;5033343;28;20208;-66
2022/08/13 06:31:08;;;;;;;10.32;6.40;;;;;;;;;;5033573;28;20523;-65
2022/08/13 06:33:36;;;;;;;6.80;6.30;;;;;;;22.46;nan;94829.53;5033389;28;20624;-66
2022/08/13 06:36:05;;;;;;;8.48;6.18;;;;;;;;;;5033720;28;20200;-66
2022/08/13 06:38:33;;;;;;;8.70;6.25;;;;;;;;;;5033113;28;20200;-67
2022/08/13 06:41:02;;;;;;;6.95;6.43;;;;;;;22.71;nan;94836.88;5033245;28;20199;-67
2022/08/13 06:43:29;;;;;;;7.47;6.63;;;;;;;;;;5033366;28;20200;-66
2022/08/13 06:45:55;;;;;;;6.70;5.97;;;;;;;;;;5032918;28;20204;-66
2022/08/13 06:48:22;;;;;;;8.52;6.90;;;;;;;;;;5032671;28;20207;-66
2022/08/13 06:50:50;;;;;;;7.15;6.40;;;;;;;;;;5033378;28;20287;-66
2022/08/13 06:53:17;;;;;;;6.75;6.13;;;;;;;;;;5032736;28;20203;-65
2022/08/13 06:55:45;;;;;;;6.35;5.80;;;;;;;;;;5032741;28;20780;-67
2022/08/13 06:58:12;;;;;;;9.27;6.05;;;;;;;;;;5032924;28;20203;-66
2022/08/13 07:00:41;;;;;;;10.38;6.40;;;;;;;;;;5033103;28;20200;-66
2022/08/13 07:03:09;;;;;;;7.75;6.65;;;;;;;;;;5033037;28;20294;-66
2022/08/13 07:05:38;;;;;;;7.68;6.93;;;;;;;;;;5032651;28;20224;-65
2022/08/13 07:08:06;;;;;;;11.18;6.63;;;;;;;;;;5032532;28;20208;-64
2022/08/13 07:10:33;;;;;;;9.13;6.72;;;;;;;;;;5032418;28;20257;-66
2022/08/13 07:13:01;;;;;;;6.90;6.30;;;;;;;;;;5032827;28;20203;-66
2022/08/13 07:15:29;;;;;;;6.90;6.45;;;;;;;;;;5032635;28;20227;-67
2022/08/13 07:17:56;;;;;;;9.77;6.95;;;;;;;;;;5032875;28;20246;-66
2022/08/13 07:20:23;;;;;;;7.97;7.35;;;;;;;;;;5032451;28;20199;-66
2022/08/13 07:22:49;;;;;;;9.32;6.80;;;;;;;;;;5032559;28;20611;-67
2022/08/13 07:25:18;;;;;;;7.78;7.10;;;;;;;;;;5032203;28;20195;-66
2022/08/13 07:27:45;;;;;;;6.38;5.88;;;;;;;;;;5032496;28;20204;-67
2022/08/13 07:30:14;;;;;;;6.85;6.28;;;;;;;;;;5032363;28;20662;-67
2022/08/13 07:32:42;;;;;;;7.95;7.28;;;;;;;;;;5032635;28;20196;-67
2022/08/13 07:35:11;;;;;;;6.95;6.30;;;;;;;24.31;nan;94844.38;5032187;28;20802;-67
2022/08/13 07:37:39;;;;;;;6.93;6.47;;;;;;;;;;5032370;28;20202;-67
2022/08/13 07:40:08;;;;;;;10.25;7.55;;;;;;;;;;5031999;28;20200;-67
2022/08/13 07:42:37;;;;;;;8.20;7.40;;;;;;;;;;5032307;28;20250;-67
2022/08/13 07:45:05;;;;;;;7.40;6.90;;;;;;;24.33;nan;94845.03;5031988;28;20192;-66
2022/08/13 07:47:32;;;;;;;7.65;7.03;;;;;;;;;;5032126;28;20199;-65
2022/08/13 07:50:01;;;;;;;6.78;6.22;;;;;;;;;;5031666;28;20253;-66
2022/08/13 07:52:29;;;;;;;6.93;6.35;;;;;;;;;;5031836;28;20210;-66
2022/08/13 07:54:58;;;;;;;7.00;6.50;;;;;;;;;;5031710;28;20250;-66
2022/08/13 07:57:26;;;;;;;7.30;6.60;;;;;;;;;;5031727;28;20200;-67
2022/08/13 07:59:52;;;;;;;7.05;6.28;;;;;;;;;;5030307;28;20200;-67
2022/08/13 08:02:19;;;;;;;6.85;6.30;;;;;;;;;;5031634;28;20203;-66
2022/08/13 08:04:46;;;;;;;6.72;6.13;;;;;;;;;;5031232;28;20200;-66
2022/08/13 08:07:14;;;;;;;6.88;6.28;;;;;;;24.89;nan;94826.00;5031318;28;20196;-66
2022/08/13 08:09:41;;;;;;;6.93;6.32;;;;;;;;;;5031186;28;20250;-66
2022/08/13 08:14:52;;;;;;;7.25;6.00;;;;;;;;;;5031359;28;20631;-66
2022/08/13 08:17:18;;;;;;;6.80;6.32;;;;;;;;;;5031773;28;20199;-66
2022/08/13 08:19:47;;;;;;;6.80;6.10;;;;;;;25.04;nan;94824.56;5030950;28;20203;-66
2022/08/13 08:22:15;;;;;;;6.40;5.90;;;;;;;;;;5031285;28;20207;-66
2022/08/13 08:24:48;;;;;;;7.28;6.55;;;;;;;24.40;nan;94819.34;5031327;28;20201;-66
2022/08/13 08:27:16;;;;;;;7.13;6.53;;;;;;;;;;5031432;28;20290;-66
2022/08/13 08:29:42;;;;;;;6.45;5.95;;;;;;;;;;5031135;28;20195;-66
2022/08/13 08:32:09;;;;;;;6.05;5.72;;;;;;;;;;5031229;28;20195;-67
2022/08/13 08:34:37;;;;;;;6.10;5.55;;;;;;;;;;5031203;28;20223;-67
2022/08/13 08:37:04;;;;;;;6.28;5.88;;;;;;;;;;5030962;28;20195;-67
2022/08/13 08:42:38;;;;;;;7.50;6.88;;;;;;;;;;5030942;28;20688;-67
2022/08/13 08:45:12;;;;;;;6.43;6.03;;;;;;;;;;5030863;28;20196;-67
2022/08/13 08:47:38;;;;;;;6.90;6.30;;;;;;;;;;5031149;28;20202;-67
2022/08/13 08:50:07;;;;;;;7.53;6.35;;;;;;;;;;5030607;28;20214;-66
2022/08/13 08:55:16;;;;;;;7.55;6.72;;;;;;;;;;5030209;28;20608;-66
2022/08/13 08:57:45;;;;;;;7.93;6.47;;;;;;;;;;5030982;28;20266;-67
2022/08/13 09:00:15;;;;;;;7.30;6.68;;;;;;;;;;5030719;28;20279;-67
2022/08/13 09:02:43;;;;;;;6.50;6.10;;;;;;;24.44;nan;94783.50;5030718;28;20244;-67
2022/08/13 09:05:12;;;;;;;6.97;6.20;;;;;;;;;;5030825;28;20223;-67
2022/08/13 09:07:41;;;;;;;6.82;6.35;;;;;;;;;;5030864;28;20199;-66
2022/08/13 09:10:09;;;;;;;6.63;6.13;;;;;;;;;;5030727;28;20195;-66
2022/08/13 09:12:41;;;;;;;7.43;6.70;;;;;;;;;;5033660;28;20625;-67
2022/08/13 09:15:08;;;;;;;7.50;6.43;;;;;;;;;;5035213;28;20224;-67
2022/08/13 09:17:34;;;;;;;6.85;6.43;;;;;;;;;;5035015;28;20631;-68
2022/08/13 09:20:02;;;;;;;7.00;6.40;;;;;;;;;;5034500;28;20666;-67
2022/08/13 09:22:28;;;;;;;7.20;6.57;;;;;;;;;;5035006;28;20290;-67
2022/08/13 09:24:57;;;;;;;7.50;6.60;;;;;;;24.12;nan;94805.44;5034370;28;20623;-68
2022/08/13 09:27:26;;;;;;;8.63;7.38;;;;;;;;;;5034884;28;20231;-68
2022/08/13 09:29:54;;;;;;;6.97;6.50;;;;;;;;;;5034331;28;20196;-67
2022/08/13 09:32:21;;;;;;;6.97;6.47;;;;;;;;;;5034774;28;20203;-66
2022/08/13 09:34:47;;;;;;;7.20;6.75;;;;;;;;;;5034173;28;20203;-67
2022/08/13 09:37:14;;;;;;;7.40;6.70;;;;;;;;;;5034511;28;20196;-66
2022/08/13 09:39:48;;;;;;;7.80;7.13;;;;;;;;;;5034219;28;20700;-66
2022/08/13 09:42:17;;;;;;;8.52;7.65;;;;;;;;;;5034514;28;20194;-67
2022/08/13 09:44:44;;;;;;;8.27;7.55;;;;;;;;;;5034446;28;20213;-67
2022/08/13 09:47:12;;;;;;;9.38;8.68;;;;;;;;;;5034135;28;20242;-66
2022/08/13 09:49:38;;;;;;;8.15;7.60;;;;;;;;;;5034251;28;20254;-66
2022/08/13 09:52:05;;;;;;;9.48;8.85;;;;;;;;;;5034649;28;20196;-67
2022/08/13 09:54:33;;;;;;;11.80;9.23;;;;;;;;;;5034495;28;20607;-66
2022/08/13 09:57:00;;;;;;;9.85;8.90;;;;;;;;;;5034323;28;20223;-67
2022/08/13 09:59:26;;;;;;;9.95;8.90;;;;;;;;;;5033673;28;20199;-66
2022/08/13 10:01:55;;;;;;;8.70;8.20;;;;;;;;;;5034202;28;20285;-67
2022/08/13 10:04:23;;;;;;;10.13;9.43;;;;;;;;;;5033949;28;20196;-66
2022/08/13 10:06:49;;;;;;;10.30;9.40;;;;;;;;;;5033955;28;20211;-67
2022/08/13 10:09:16;;;;;;;10.25;9.40;;;;;;;;;;5033669;28;20677;-67
2022/08/13 10:11:42;;;;;;;10.70;9.95;;;;;;;;;;5033864;28;20237;-67
2022/08/13 10:14:09;;;;;;;11.38;10.40;;;;;;;;;;5033760;28;20204;-66
2022/08/13 10:16:35;;;;;;;14.15;12.65;;;;;;;;;;5033969;28;20286;-67
2022/08/13 10:19:03;;;;;;;19.42;15.45;;;;;;;;;;5033783;28;20200;-66
2022/08/13 10:21:31;;;;;;;18.17;16.35;;;;;;;;;;5034047;28;20203;-67
2022/08/13 10:23:57;;;;;;;11.88;10.98;;;;;;;;;;5032198;28;20569;-66
2022/08/13 10:26:24;;;;;;;10.50;9.70;;;;;;;;;;5033538;28;20192;-65
2022/08/13 10:28:50;;;;;;;11.52;10.68;;;;;;;;;;5033326;28;20692;-65
2022/08/13 10:31:17;;;;;;;11.73;10.75;;;;;;;;;;5034223;28;20204;-67
2022/08/13 10:33:44;;;;;;;12.80;11.80;;;;;;;;;;5033869;28;20192;-67
2022/08/13 10:36:14;;;;;;;12.35;11.35;;;;;;;;;;5033978;28;20242;-67
2022/08/13 10:38:42;;;;;;;14.63;13.32;;;;;;;;;;5033717;28;20204;-67
2022/08/13 10:41:09;;;;;;;13.98;12.48;;;;;;;;;;5033363;28;20203;-66
2022/08/13 10:43:38;;;;;;;14.13;12.80;;;;;;;;;;5033278;28;20578;-66
2022/08/13 10:46:05;;;;;;;15.25;13.90;;;;;;;;;;5033162;28;20207;-66
2022/08/13 10:48:31;;;;;;;14.63;13.23;;;;;;;;;;5033084;28;20749;-66
2022/08/13 10:50:58;;;;;;;15.63;14.20;;;;;;;;;;5032999;28;20743;-67
2022/08/13 10:56:11;;;;;;;18.40;16.58;;;;;;;;;;5033140;28;20219;-66
2022/08/13 10:58:37;;;;;;;17.88;16.13;;;;;;;;;;5033247;28;20214;-67
2022/08/13 11:01:04;;;;;;;19.45;17.42;;;;;;;;;;5032752;28;20196;-66
2022/08/13 11:03:31;;;;;;;20.05;14.77;;;;;;;22.55;nan;94877.97;5033483;28;20204;-66
2022/08/13 11:05:59;;;;;;;15.95;14.40;;;;;;;;;;5033179;28;20226;-66
2022/08/13 11:08:26;;;;;;;13.82;12.57;;;;;;;;;;5032928;28;20211;-65
2022/08/13 11:10:52;;;;;;;15.10;13.55;;;;;;;;;;5032602;28;20231;-66
2022/08/13 11:13:20;;;;;;;15.82;13.38;;;;;;;;;;5032944;28;20266;-69
2022/08/13 11:15:47;;;;;;;14.48;13.25;;;;;;;;;;5032624;28;20227;-67
2022/08/13 11:18:13;;;;;;;15.93;14.30;;;;;;;;;;5032781;28;20258;-66
2022/08/13 11:21:02;;;;;;;16.38;12.77;;;;;;;;;;5032345;28;20195;-67
2022/08/13 11:23:28;;;;;;;12.05;11.05;;;;;;;;;;5032333;28;20673;-66
2022/08/13 11:25:55;;;;;;;10.77;9.90;;;;;;;;;;5032273;28;20196;-66
2022/08/13 11:28:22;;;;;;;14.05;12.63;;;;;;;;;;5032767;28;20195;-66
2022/08/13 11:30:49;;;;;;;15.15;13.82;;;;;;;;;;5032107;28;20755;-66
2022/08/13 11:33:16;;;;;;;17.02;12.82;;;;;;;;;;5032232;28;20747;-65
2022/08/13 11:35:43;;;;;;;12.98;11.82;;;;;;;;;;5032134;28;20362;-65
2022/08/13 11:38:10;;;;;;;12.40;11.25;;;;;;;;;;5032086;28;20265;-67
2022/08/13 11:40:36;;;;;;;12.15;10.90;;;;;;;;;;5032262;28;20199;-67
2022/08/13 11:43:03;;;;;;;12.68;11.32;;;;;;;;;;5032358;28;20200;-67
2022/08/13 11:45:31;;;;;;;11.05;10.02;;;;;;;23.33;nan;94760.66;5032087;28;20388;-67
2022/08/13 11:47:58;;;;;;;10.63;9.90;;;;;;;;;;5032151;28;20199;-67
2022/08/13 11:50:24;;;;;;;9.48;8.80;;;;;;;;;;5031903;28;20208;-67
2022/08/13 11:52:51;;;;;;;10.55;9.65;;;;;;;;;;5032119;28;20200;-66
2022/08/13 11:55:17;;;;;;;11.05;10.25;;;;;;;;;;5031348;28;20206;-66
2022/08/13 11:57:44;;;;;;;10.23;9.50;;;;;;;;;;5032096;28;20200;-66
2022/08/13 12:00:11;;;;;;;10.38;9.38;;;;;;;;;;5031747;28;20253;-65
2022/08/13 12:02:39;;;;;;;11.13;10.10;;;;;;;;;;5031585;28;20708;-66
2022/08/13 12:05:05;;;;;;;10.40;9.02;;;;;;;;;;5031669;28;20220;-66
2022/08/13 12:07:32;;;;;;;10.82;10.05;;;;;;;23.04;nan;94756.25;5031911;28;20196;-66
2022/08/13 12:09:59;;;;;;;11.50;10.45;;;;;;;;;;5031287;28;20557;-66
2022/08/13 12:12:26;;;;;;;12.40;9.95;;;;;;;22.55;nan;94748.47;5031484;28;20297;-66
2022/08/13 12:14:53;;;;;;;11.88;9.32;;;;;;;;;;5031161;28;20203;-67
2022/08/13 12:17:20;;;;;;;9.88;8.57;;;;;;;;;;5031366;28;20717;-67
2022/08/13 12:19:47;;;;;;;9.80;8.88;;;;;;;;;;5031262;28;20294;-66
2022/08/13 12:22:14;;;;;;;9.27;8.48;;;;;;;;;;5031649;28;20277;-66
2022/08/13 12:24:41;;;;;;;9.88;9.10;;;;;;;;;;5031483;28;20253;-66
2022/08/13 12:27:07;;;;;;;8.65;7.90;;;;;;;;;;5031383;28;20200;-67
2022/08/13 12:29:34;;;;;;;9.00;8.05;;;;;;;;;;5030983;28;20200;-66
2022/08/13 12:32:00;;;;;;;8.98;8.00;;;;;;;;;;5031094;28;20204;-67
2022/08/13 12:34:27;;;;;;;9.60;8.13;;;;;;;;;;5031319;28;20210;-66
2022/08/13 12:36:54;;;;;;;9.13;8.50;;;;;;;;;;5031049;28;20289;-68
2022/08/13 12:39:21;;;;;;;9.13;8.63;;;;;;;;;;5030883;28;20204;-66
2022/08/13 12:41:47;;;;;;;9.93;9.02;;;;;;;;;;5031434;28;20200;-66
2022/08/13 12:44:14;;;;;;;9.70;8.95;;;;;;;;;;5030964;28;20200;-65
2022/08/13 12:46:40;;;;;;;10.38;9.63;;;;;;;;;;5030790;28;20708;-66
2022/08/13 12:49:07;;;;;;;14.88;13.57;;;;;;;;;;5031011;28;20204;-66
2022/08/13 12:51:34;;;;;;;21.27;19.02;;;;;;;;;;5031514;28;20206;-65
2022/08/13 12:54:01;;;;;;;35.67;32.42;;;;;;;;;;5030705;28;20249;-66
2022/08/13 12:56:28;;;;;;;35.78;32.47;;;;;;;;;;5030951;28;20228;-66
2022/08/13 12:58:54;;;;;;;35.60;32.20;;;;;;;;;;5030658;28;20203;-65
2022/08/13 13:01:21;;;;;;;33.22;29.88;;;;;;;;;;5031014;28;20195;-65
2022/08/13 13:03:47;;;;;;;34.67;30.95;;;;;;;;;;5031186;28;20238;-67
2022/08/13 13:06:17;;;;;;;23.08;20.90;;;;;;;;;;5030941;28;20215;-66
2022/08/13 13:08:43;;;;;;;25.30;22.58;;;;;;;;;;5030744;28;20208;-66
2022/08/13 13:11:11;;;;;;;21.60;19.60;;;;;;;;;;5030497;28;20808;-66
2022/08/13 13:13:38;;;;;;;17.65;15.70;;;;;;;;;;5030866;28;20199;-66
2022/08/13 13:16:05;;;;;;;14.43;13.07;;;;;;;;;;5030479;28;20223;-65
2022/08/13 13:18:32;;;;;;;12.18;11.18;;;;;;;;;;5030497;28;20756;-65
2022/08/13 13:20:59;;;;;;;10.90;10.10;;;;;;;20.43;nan;94819.94;5030926;28;20203;-65
2022/08/13 13:23:26;;;;;;;11.90;10.90;;;;;;;;;;5030521;28;20563;-65
2022/08/13 13:25:53;;;;;;;12.05;11.05;;;;;;;;;;5030568;28;20257;-65
2022/08/13 13:28:23;;;;;;;12.45;11.45;;;;;;;;;;5030857;28;20200;-65
2022/08/13 13:30:51;;;;;;;12.63;11.63;;;;;;;;;;5030519;28;20636;-65
2022/08/13 13:33:18;;;;;;;13.02;11.88;;;;;;;;;;5030538;28;20200;-65
2022/08/13 13:35:45;;;;;;;14.20;13.10;;;;;;;;;;5030741;28;20204;-66
2022/08/13 13:38:12;;;;;;;13.40;12.20;;;;;;;;;;5030570;28;20290;-66
2022/08/13 13:40:40;;;;;;;14.77;13.52;;;;;;;;;;5030605;28;20200;-66
2022/08/13 13:43:07;;;;;;;15.27;13.98;;;;;;;20.44;nan;94810.41;5030557;28;20290;-65
2022/08/13 13:45:36;;;;;;;16.38;14.75;;;;;;;;;;5030293;28;20625;-66
2022/08/13 13:48:02;;;;;;;15.70;14.18;;;;;;;;;;5030593;28;20250;-65
2022/08/13 13:50:30;;;;;;;16.58;15.05;;;;;;;;;;5030202;28;20567;-66
2022/08/13 13:52:57;;;;;;;16.33;14.88;;;;;;;;;;5030449;28;20191;-66
2022/08/13 13:55:24;;;;;;;15.50;14.23;;;;;;;;;;5030405;28;20200;-66
2022/08/13 13:57:50;;;;;;;16.65;15.02;;;;;;;;;;5031744;28;20609;-66
2022/08/13 14:00:17;;;;;;;17.58;15.45;;;;;;;;;;5033749;28;20598;-66
2022/08/13 14:02:52;;;;;;;16.67;15.32;;;;;;;;;;5034092;28;20227;-66
2022/08/13 14:05:19;;;;;;;17.67;15.98;;;;;;;;;;5033795;28;20230;-67
2022/08/13 14:07:52;;;;;;;18.25;16.20;;;;;;;;;;5034173;28;20199;-66
2022/08/13 14:10:19;;;;;;;20.92;18.70;;;;;;;;;;5033641;28;20261;-66
2022/08/13 14:12:46;;;;;;;20.92;18.38;;;;;;;;;;5033632;28;20199;-66
2022/08/13 14:15:13;;;;;;;20.27;18.27;;;;;;;;;;5033852;28;20246;-66
2022/08/13 14:17:39;;;;;;;20.10;18.15;;;;;;;;;;5033805;28;20358;-67
2022/08/13 14:20:11;;;;;;;18.83;17.08;;;;;;;;;;5033659;28;20204;-67
2022/08/13 14:22:38;;;;;;;19.58;17.77;;;;;;;;;;5033903;28;20242;-67
2022/08/13 14:25:05;;;;;;;19.58;17.80;;;;;;;;;;5033285;28;20204;-67
2022/08/13 14:27:32;;;;;;;22.50;17.55;;;;;;;;;;5033406;28;20560;-67
2022/08/13 14:29:58;;;;;;;20.67;18.75;;;;;;;;;;5033244;28;20270;-66
2022/08/13 14:32:25;;;;;;;19.38;17.60;;;;;;;;;;5033615;28;20636;-65
2022/08/13 14:34:52;;;;;;;19.00;17.17;;;;;;;;;;5033398;28;20257;-66
2022/08/13 14:37:20;;;;;;;20.15;18.23;;;;;;;;;;5033329;28;20316;-66
2022/08/13 14:39:47;;;;;;;20.83;18.77;;;;;;;;;;5033538;28;20210;-66
2022/08/13 14:42:25;;;;;;;21.73;18.95;;;;;;;;;;5033400;28;20257;-65
2022/08/13 14:45:39;;;;;;;19.75;17.75;;;;;;;;;;5033041;28;20207;-66
2022/08/13 14:47:38;;;;;;;18.92;17.15;;;;;;;;;;5033130;28;20234;-65
2022/08/13 14:50:06;;;;;;;21.05;18.85;;;;;;;;;;5033006;28;20200;-66
2022/08/13 14:52:34;;;;;;;21.08;19.25;;;;;;;;;;5033262;28;20250;-65